Latest Weather Observations for Archerfield

IDQ60801

Issued at 9:02 am EST Saturday 21 October 2017 (issued every 30 minutes, with the page automatically refreshed every 10 minutes)

About weather observations | Map of weather stations | Latest weather observations for QLD | Other Formats
Station Details ID: 040211 Name: ARCHERFIELD AIRPORT Lat: -27.57 Lon: 153.01 Height: 12.5 m
Data from the previous 72 hours. | See also: Recent months at Archerfield
Date/Time
EST
Temp
°C
App
Temp
°C
Dew
Point
°C
Rel
Hum
%
Delta-T
°C
Wind Press
QNH
hPa
Press
MSL
hPa
Rain since
9am
mm
Dir  Spd
km/h
Gust
km/h
Spd
kts
Gust
kts
21/09:00am 18.7 19.5 17.2 91 0.9 SE 9 13 5 7 1016.4 1016.3 4.8
21/08:30am 18.5 18.8 17.0 91 0.9 SE 11 15 6 8 1016.4 1016.3 3.8
21/08:00am 18.7 19.1 17.2 91 0.9 ESE 11 15 6 8 1015.8 1015.7 3.0
21/07:30am 18.3 18.5 16.8 91 0.9 SSE 11 15 6 8 1015.9 1015.8 2.2
21/07:00am 18.5 19.1 16.7 89 1.1 SE 9 11 5 6 1015.7 1015.6 1.0
21/06:30am 18.4 19.4 16.4 88 1.2 SSW 6 7 3 4 1015.8 1015.7 0.6
21/06:00am 18.5 19.2 16.1 86 1.4 SW 7 9 4 5 1015.8 1015.7 0.0
21/05:30am 18.3 19.2 16.1 87 1.3 W 6 9 3 5 1015.5 1015.4 0.0
21/05:00am 18.2 19.0 15.8 86 1.4 WSW 6 9 3 5 1015.0 1014.9 0.0
21/04:30am 18.3 20.1 15.6 84 1.6 CALM 0 6 0 3 1014.5 1014.4 0.0
21/04:00am 18.3 20.1 15.4 83 1.7 CALM 0 0 0 0 1014.4 1014.3 0.0
21/03:30am 18.0 19.0 15.3 84 1.6 WNW 4 7 2 4 1014.8 1014.7 0.0
21/03:00am 18.5 19.2 15.6 83 1.7 WSW 6 11 3 6 1014.5 1014.4 0.0
21/02:30am 19.1 21.1 16.0 82 1.8 CALM 0 0 0 0 1014.9 1014.8 0.0
21/02:00am 18.7 19.5 15.8 83 1.7 SSE 6 7 3 4 1014.9 1014.8 0.0
21/01:30am 19.3 21.1 15.6 79 2.2 CALM 0 0 0 0 1015.4 1015.3 0.0
21/01:00am 19.3 21.0 15.2 77 2.4 CALM 0 0 0 0 1015.7 1015.6 0.0
21/12:30am 19.5 20.2 15.6 78 2.3 NNE 6 7 3 4 1016.2 1016.1 0.0
21/12:00am 19.2 19.6 15.3 78 2.3 NNW 7 11 4 6 1016.4 1016.3 0.0
 
Date/Time
EST
Temp
°C
App
Temp
°C
Dew
Point
°C
Rel
Hum
%
Delta-T
°C
Wind Press
QNH
hPa
Press
MSL
hPa
Rain since
9am
mm
Dir  Spd
km/h
Gust
km/h
Spd
kts
Gust
kts
20/11:30pm 19.5 19.5 15.2 76 2.5 N 9 13 5 7 1016.7 1016.6 0.0
20/11:00pm 19.7 18.5 15.1 75 2.7 N 15 19 8 10 1016.9 1016.8 0.0
20/10:30pm 19.8 19.2 15.7 77 2.4 N 13 20 7 11 1017.1 1017.0 0.0
20/10:00pm 19.3 19.5 15.8 80 2.1 NNE 9 13 5 7 1017.3 1017.2 0.0
20/09:30pm 19.4 19.1 15.5 78 2.3 NNE 11 13 6 7 1017.4 1017.3 0.0
20/09:00pm 19.8 19.1 15.4 76 2.6 NNE 13 19 7 10 1017.5 1017.4 0.0
20/08:30pm 20.0 19.3 15.4 75 2.7 NNE 13 17 7 9 1017.5 1017.4 0.0
20/08:00pm 20.6 19.5 15.4 72 3.1 NNE 15 19 8 10 1017.6 1017.5 0.0
20/07:30pm 20.9 19.6 15.9 73 3.0 NNE 17 22 9 12 1017.4 1017.3 0.0
20/07:00pm 21.2 19.5 16.2 73 3.0 NNE 20 24 11 13 1017.3 1017.2 0.0
20/06:30pm 21.3 19.0 15.6 70 3.4 NNE 22 30 12 16 1017.1 1017.0 0.0
20/06:00pm 21.9 19.8 15.3 66 3.9 NNE 20 28 11 15 1017.1 1017.0 0.0
20/05:30pm 22.8 20.4 14.4 59 4.9 NNE 20 28 11 15 1016.9 1016.8 0.0
20/05:00pm 23.8 20.5 13.9 54 5.8 NNE 24 28 13 15 1016.8 1016.7 0.0
20/04:30pm 24.6 22.2 14.4 53 6.0 NNE 20 28 11 15 1016.8 1016.7 0.0
20/04:00pm 24.9 22.7 15.0 54 5.9 NNE 20 28 11 15 1016.9 1016.8 0.0
20/03:30pm 25.4 23.7 16.3 57 5.6 NNE 20 28 11 15 1017.0 1016.9 0.0
20/03:00pm 25.2 23.3 15.2 54 6.0 NE 19 26 10 14 1017.2 1017.1 0.0
20/02:30pm 24.8 23.6 16.0 58 5.4 NNE 17 22 9 12 1017.6 1017.5 0.0
20/02:00pm 25.3 24.0 15.9 56 5.7 NNE 17 22 9 12 1018.1 1018.0 0.0
20/01:30pm 25.3 24.1 15.0 53 6.2 N 15 22 8 12 1018.5 1018.4 0.0
20/01:00pm 24.9 23.2 14.7 53 6.1 N 17 22 9 12 1018.9 1018.8 0.0
20/12:30pm 25.4 23.6 14.5 51 6.5 N 17 24 9 13 1019.3 1019.2 0.0
20/12:00pm 25.2 23.7 14.3 50 6.5 NNE 15 22 8 12 1019.7 1019.6 0.0
20/11:30am 26.9 27.0 17.4 56 6.0 NNE 13 24 7 13 1020.1 1020.0 0.0
20/11:00am 25.1 24.8 15.4 55 5.8 NNE 11 22 6 12 1020.6 1020.5 0.0
20/10:30am 24.1 23.2 14.8 56 5.5 NNE 13 19 7 10 1021.2 1021.1 0.0
20/10:00am 23.2 22.9 15.5 62 4.6 N 11 17 6 9 1021.5 1021.4 0.0
20/09:30am 23.2 21.8 15.5 62 4.6 NE 17 24 9 13 1021.5 1021.4 0.0
20/09:00am 24.1 24.2 16.4 62 4.7 NE 11 22 6 12 1021.7 1021.6 0.0
20/08:30am 23.1 24.5 16.4 66 4.1 SE 4 9 2 5 1021.7 1021.6 0.0
20/08:00am 21.0 22.6 16.0 73 3.0 S 2 7 1 4 1022.0 1021.9 0.0
20/07:30am 20.0 20.8 15.8 77 2.5 SSW 6 9 3 5 1022.0 1021.9 0.0
20/07:00am 18.5 19.2 15.7 84 1.6 SSW 6 7 3 4 1022.0 1021.9 0.0
20/06:30am 17.5 17.8 15.1 86 1.4 WSW 7 9 4 5 1022.1 1022.0 0.0
20/06:00am 17.4 17.8 15.2 87 1.3 S 7 9 4 5 1021.8 1021.7 0.0
20/05:30am 17.1 17.1 15.3 89 1.0 SE 9 13 5 7 1021.6 1021.5 0.0
20/05:00am 16.9 16.9 15.1 89 1.0 S 9 11 5 6 1021.4 1021.3 0.0
20/04:30am 17.1 17.5 15.3 89 1.0 S 7 11 4 6 1021.4 1021.3 0.0
20/04:00am 16.9 17.8 15.1 89 1.0 S 4 7 2 4 1021.2 1021.1 0.0
20/03:30am 17.0 18.3 15.2 89 1.0 S 2 7 1 4 1021.1 1021.0 0.0
20/03:00am 17.4 17.8 15.4 88 1.2 SSE 7 11 4 6 1021.1 1021.0 0.0
20/02:30am 17.8 18.3 15.6 87 1.3 S 7 13 4 7 1021.4 1021.3 0.0
20/02:00am 17.9 17.5 16.1 89 1.1 S 13 17 7 9 1021.8 1021.7 0.0
20/01:30am 17.9 17.9 16.2 90 1.0 S 11 13 6 7 1022.1 1022.0 0.0
20/01:00am 17.7 18.3 15.7 88 1.2 SSW 7 9 4 5 1022.4 1022.3 0.0
20/12:30am 18.4 19.1 16.0 86 1.4 S 7 9 4 5 1022.8 1022.7 0.0
20/12:00am 18.9 20.2 16.1 84 1.7 S 4 6 2 3 1023.4 1023.3 0.0
 
Date/Time
EST
Temp
°C
App
Temp
°C
Dew
Point
°C
Rel
Hum
%
Delta-T
°C
Wind Press
QNH
hPa
Press
MSL
hPa
Rain since
9am
mm
Dir  Spd
km/h
Gust
km/h
Spd
kts
Gust
kts
19/11:30pm 19.0 20.6 16.0 83 1.8 SSE 2 7 1 4 1023.8 1023.7 0.0
19/11:00pm 19.7 20.3 15.8 78 2.3 ENE 7 11 4 6 1024.1 1024.0 0.0
19/10:30pm 20.0 20.9 16.2 79 2.3 ENE 6 9 3 5 1024.4 1024.3 0.0
19/10:00pm 19.5 20.4 16.2 81 2.0 SSE 6 7 3 4 1024.6 1024.5 0.0
19/09:30pm 19.2 21.2 15.9 81 2.0 CALM 0 6 0 3 1024.7 1024.6 0.0
19/09:00pm 19.2 19.6 15.3 78 2.3 ENE 7 9 4 5 1024.8 1024.7 0.0
19/08:30pm 19.3 19.7 15.2 77 2.4 ENE 7 9 4 5 1024.8 1024.7 0.0
19/08:00pm 20.0 20.0 15.2 74 2.8 ENE 9 11 5 6 1024.6 1024.5 0.0
19/07:30pm 20.6 20.7 15.4 72 3.1 ENE 9 13 5 7 1024.5 1024.4 0.0
19/07:00pm 21.0 21.0 15.3 70 3.4 E 9 13 5 7 1024.3 1024.2 0.0
19/06:30pm 21.1 20.3 15.0 68 3.6 E 13 17 7 9 1024.1 1024.0 0.0
19/06:00pm 21.4 20.5 14.8 66 3.9 E 13 20 7 11 1023.9 1023.8 0.0
19/05:30pm 22.1 20.4 14.7 63 4.4 E 17 24 9 13 1023.5 1023.4 0.0
19/05:00pm 22.3 19.9 14.4 61 4.6 E 20 26 11 14 1023.2 1023.1 0.0
19/04:30pm 23.0 21.3 14.6 59 5.0 ENE 17 22 9 12 1023.1 1023.0 0.0
19/04:00pm 22.9 20.3 15.0 61 4.7 E 22 30 12 16 1023.0 1022.9 0.0
19/03:30pm 24.1 22.0 15.3 58 5.3 ESE 20 28 11 15 1022.9 1022.8 0.0
19/03:00pm 23.6 20.6 14.9 58 5.2 ENE 24 32 13 17 1023.2 1023.1 0.0
19/02:30pm 24.4 22.3 15.1 56 5.6 ENE 20 28 11 15 1023.3 1023.2 0.0
19/02:00pm 23.9 21.8 15.1 58 5.2 E 20 28 11 15 1023.7 1023.6 0.0
19/01:30pm 23.1 21.5 15.9 64 4.3 ENE 19 28 10 15 1024.3 1024.2 0.0
19/01:00pm 23.4 22.3 16.4 64 4.3 NE 17 22 9 12 1024.4 1024.3 0.0
19/12:30pm 24.2 22.2 15.4 58 5.3 ENE 20 32 11 17 1024.6 1024.5 0.0
19/12:00pm 24.0 21.1 15.2 58 5.3 E 24 35 13 19 1024.7 1024.6 0.0
19/11:30am 24.1 22.0 15.1 57 5.4 E 20 32 11 17 1024.9 1024.8 0.0
19/11:00am 23.5 22.1 17.0 67 4.0 E 20 26 11 14 1025.3 1025.2 0.0
19/10:30am 23.0 21.0 15.6 63 4.4 E 20 32 11 17 1025.5 1025.4 0.0
19/10:00am 23.2 20.2 15.8 63 4.4 E 26 35 14 19 1025.7 1025.6 0.0
19/09:30am 23.0 20.0 15.8 64 4.3 ENE 26 35 14 19 1025.7 1025.6 0.0
19/09:00am 22.2 20.6 16.5 70 3.4 ENE 20 30 11 16 1026.0 1025.9 1.8
19/08:30am 22.2 20.3 15.8 67 3.8 E 20 32 11 17 1026.0 1025.9 1.6
19/08:00am 22.4 20.6 16.0 67 3.8 E 20 33 11 18 1025.8 1025.7 1.6
19/07:30am 21.9 23.0 16.6 72 3.2 SE 6 13 3 7 1025.8 1025.7 1.6
19/07:00am 19.8 22.0 17.4 86 1.5 W 2 7 1 4 1025.8 1025.7 1.6
19/06:30am 19.0 21.4 17.0 88 1.2 CALM 0 0 0 0 1025.5 1025.4 1.6
19/06:00am 18.4 20.6 16.6 89 1.1 CALM 0 2 0 1 1025.3 1025.2 1.6
19/05:30am 18.1 18.1 16.3 89 1.1 SSE 11 13 6 7 1025.2 1025.1 1.6
19/05:00am 17.9 18.3 16.2 90 1.0 SSE 9 13 5 7 1024.9 1024.8 1.6
19/04:30am 18.1 19.2 16.6 91 0.9 SE 6 7 3 4 1024.9 1024.8 1.6
19/04:00am 18.2 18.8 16.9 92 0.8 SSE 9 11 5 6 1024.8 1024.7 1.6
19/03:30am 17.9 18.5 16.8 93 0.7 S 9 9 5 5 1024.6 1024.5 1.6
19/03:00am 18.1 19.2 17.0 93 0.7 SSE 7 9 4 5 1024.4 1024.3 1.6
19/02:30am 18.0 19.0 16.9 93 0.7 SSE 7 11 4 6 1024.5 1024.4 1.6
19/02:00am 17.9 18.9 16.8 93 0.7 S 7 11 4 6 1024.7 1024.6 1.6
19/01:30am 18.0 18.9 16.7 92 0.8 S 7 11 4 6 1025.0 1024.9 1.6
19/01:00am 18.2 19.2 16.9 92 0.8 S 7 11 4 6 1025.1 1025.0 1.6
19/12:30am 18.3 19.4 17.1 93 0.7 SSW 7 9 4 5 1025.5 1025.4 1.6
19/12:00am 18.5 19.3 17.2 92 0.8 S 9 11 5 6 1025.9 1025.8 1.6
 
Date/Time
EST
Temp
°C
App
Temp
°C
Dew
Point
°C
Rel
Hum
%
Delta-T
°C
Wind Press
QNH
hPa
Press
MSL
hPa
Rain since
9am
mm
Dir  Spd
km/h
Gust
km/h
Spd
kts
Gust
kts
18/11:30pm 18.4 19.7 17.1 92 0.8 SSW 6 9 3 5 1026.1 1026.0 1.4
18/11:05pm 18.5 19.6 17.2 92 0.8 ESE 7 9 4 5 1026.4 1026.3 1.4
18/11:00pm 18.6 19.8 17.3 92 0.8 ESE 7 9 4 5 1026.5 1026.4 1.4
18/10:49pm 18.6 19.7 17.1 91 0.9 ESE 7 11 4 6 1026.5 1026.4 1.4
18/10:30pm 18.6 18.9 17.1 91 0.9 SSE 11 15 6 8 1026.5 1026.4 1.0
18/10:00pm 18.7 19.0 17.0 90 1.0 SSE 11 15 6 8 1026.6 1026.5 1.0
18/09:30pm 18.8 17.4 16.6 87 1.3 E 19 30 10 16 1026.6 1026.5 1.0
18/09:00pm 18.9 19.7 17.2 90 1.0 ESE 9 13 5 7 1026.5 1026.4 1.0
18/08:30pm 18.8 18.8 17.1 90 1.0 SSE 13 17 7 9 1026.3 1026.2 1.0
18/08:00pm 19.0 17.8 17.1 89 1.1 ESE 19 24 10 13 1025.9 1025.8 1.0
18/07:39pm 18.6 18.6 17.3 92 0.8 SE 13 19 7 10 1025.8 1025.7 1.0
18/07:30pm 18.6 18.6 17.3 92 0.8 SE 13 19 7 10 1025.7 1025.6 1.0
18/07:19pm 18.8 18.0 17.1 90 1.0 E 17 22 9 12 1025.7 1025.6 1.0
18/07:05pm 19.1 18.0 17.2 89 1.2 ESE 19 24 10 13 1025.4 1025.3 0.8
18/07:00pm 18.9 18.1 17.2 90 1.0 ESE 17 22 9 12 1025.3 1025.2 0.8
18/06:53pm 18.8 18.1 17.3 91 0.9 ESE 17 24 9 13 1025.3 1025.2 0.8
18/06:38pm 18.9 18.6 17.4 91 0.9 ESE 15 20 8 11 1025.1 1025.0 0.6
18/06:30pm 19.1 18.8 17.4 90 1.0 ESE 15 20 8 11 1025.0 1024.9 0.6
18/06:02pm 19.2 18.5 17.3 89 1.2 SE 17 22 9 12 1024.6 1024.5 0.4
18/06:00pm 19.2 18.1 17.3 89 1.2 SE 19 24 10 13 1024.6 1024.5 0.4
18/05:48pm 19.3 18.5 17.1 87 1.3 ESE 17 22 9 12 1024.4 1024.3 0.4
18/05:30pm 19.8 18.9 16.8 83 1.8 SE 17 26 9 14 1024.2 1024.1 0.2
18/05:00pm 19.7 18.0 17.1 85 1.6 SE 22 32 12 17 1023.9 1023.8 0.2
18/04:30pm 20.5 17.8 16.7 79 2.3 SE 26 39 14 21 1023.7 1023.6 0.2
18/04:00pm 21.9 18.1 15.7 68 3.7 SE 30 39 16 21 1023.4 1023.3 0.2
18/03:30pm 22.4 18.9 15.5 65 4.1 ESE 28 39 15 21 1023.3 1023.2 0.2
18/03:00pm 22.0 19.7 16.7 72 3.2 E 24 35 13 19 1023.5 1023.4 0.2
18/02:30pm 22.9 18.9 16.2 66 4.1 ESE 32 43 17 23 1023.6 1023.5 0.2
18/02:00pm 22.5 18.5 16.3 68 3.7 SE 32 43 17 23 1023.7 1023.6 0.2
18/01:30pm 22.6 18.5 15.9 66 4.0 SE 32 41 17 22 1023.9 1023.8 0.2
18/01:00pm 22.9 19.6 16.0 65 4.2 ESE 28 41 15 22 1024.2 1024.1 0.2
18/12:30pm 23.0 20.8 17.0 69 3.7 E 24 35 13 19 1024.5 1024.4 0.2
18/12:00pm 22.0 18.2 17.2 74 2.9 ESE 33 44 18 24 1024.6 1024.5 0.2
18/11:30am 20.7 17.6 17.5 82 2.0 ESE 30 43 16 23 1024.9 1024.8 0.2
18/11:00am 23.6 20.1 15.6 61 4.8 E 28 33 15 18 1024.7 1024.6 0.0
18/10:30am 23.5 20.6 16.1 63 4.5 E 26 39 14 21 1024.9 1024.8 0.0
18/10:00am 23.0 21.0 18.3 75 2.9 SE 26 37 14 20 1025.0 1024.9 0.0
18/09:30am 21.4 18.9 18.0 81 2.1 SE 28 35 15 19 1025.1 1025.0 0.0

Other Formats:

Comma delimited format used in spreadsheet applications
http://www.bom.gov.au/fwo/IDQ60801/IDQ60801.94575.axf

JavaScript Object Notation format (JSON) in row-major order
http://www.bom.gov.au/fwo/IDQ60801/IDQ60801.94575.json